Terminal Aerodrome Forecast
Issued by NWS Goodland, KS

Home | Current Version | Previous Version | Text Only | Print | Product List | Glossary On
Versions: 1 2 3 4 5 6 7 8 9 10 11 12 13 14 15 16 17
643
FTUS43 KGLD 292248 AAA
TAFGLD
TAF AMD
KGLD 292248Z 2923/3018 12021G30KT P6SM SCT100
     FM300000 18008KT P6SM SCT050 BKN120=

USA.gov is the U.S. government's official web portal to all federal, state and local government web resources and services.